Time;durP1;ratioP1;P1;durP2;ratioP2;P2;SDS_P1;SDS_P2;PMS_P1;PMS_P2;Temp;Humidity;BMP_temperature;BMP_pressure;BME280_temperature;BME280_humidity;BME280_pressure;Samples;Min_cycle;Max_cycle;Signal;HPM_P1;HPM_P2
2021/03/01 00:01:21;;;;;;;8.02;2.55;;;;;;;29.61;30.68;99773.13;5114045;28;20197;-60
2021/03/01 00:03:47;;;;;;;7.22;2.50;;;;;;;28.64;31.70;99765.88;5113755;27;20335;-62
2021/03/01 00:06:13;;;;;;;4.85;2.08;;;;;;;28.26;32.56;99762.78;5113710;28;20220;-60
2021/03/01 00:08:40;;;;;;;7.40;2.65;;;;;;;30.09;30.09;99773.91;5114063;28;20212;-61
2021/03/01 00:11:06;;;;;;;7.78;2.78;;;;;;;29.12;31.31;99774.91;5113606;28;20217;-57
2021/03/01 00:13:32;;;;;;;4.22;1.90;;;;;;;28.48;32.31;99765.84;5113636;28;20691;-60
2021/03/01 00:15:59;;;;;;;6.32;2.83;;;;;;;29.81;30.46;99768.16;5113994;28;20209;-61
2021/03/01 00:18:25;;;;;;;5.30;2.47;;;;;;;29.02;31.24;99774.25;5113404;28;20205;-62
2021/03/01 00:20:52;;;;;;;7.43;2.38;;;;;;;28.54;32.33;99770.56;5113859;28;20273;-61
2021/03/01 00:23:18;;;;;;;6.80;2.42;;;;;;;28.21;32.44;99765.13;5113717;28;20214;-61
2021/03/01 00:25:44;;;;;;;8.23;2.22;;;;;;;29.57;30.67;99769.09;5113599;28;20201;-61
2021/03/01 00:28:10;;;;;;;6.88;2.50;;;;;;;28.42;32.23;99775.44;5113581;28;20249;-61
2021/03/01 00:30:36;;;;;;;6.00;2.33;;;;;;;27.93;32.96;99778.88;5113432;28;20211;-62
2021/03/01 00:33:03;;;;;;;6.40;2.55;;;;;;;30.35;29.67;99780.84;5113442;28;20235;-61
2021/03/01 00:35:30;;;;;;;4.53;2.33;;;;;;;29.73;30.71;99773.56;5113682;28;20209;-62
2021/03/01 00:37:56;;;;;;;5.57;2.30;;;;;;;29.01;31.11;99777.13;5113325;28;20211;-63
2021/03/01 00:40:22;;;;;;;5.03;2.15;;;;;;;28.51;32.18;99770.88;5112835;28;20212;-62
2021/03/01 00:42:48;;;;;;;7.25;2.33;;;;;;;29.75;30.42;99775.06;5113042;28;20220;-62
2021/03/01 00:45:15;;;;;;;5.25;2.25;;;;;;;28.75;32.07;99773.63;5113306;28;20197;-62
2021/03/01 00:47:41;;;;;;;4.53;2.10;;;;;;;28.36;32.55;99771.56;5112898;28;20257;-62
2021/03/01 00:50:09;;;;;;;4.72;2.20;;;;;;;30.56;29.67;99775.66;5113458;28;20232;-62
2021/03/01 00:52:36;;;;;;;6.63;2.40;;;;;;;29.81;30.34;99779.81;5114049;28;20225;-60
2021/03/01 00:55:03;;;;;;;5.07;2.40;;;;;;;28.99;31.46;99774.59;5113577;28;20220;-60
2021/03/01 00:57:29;;;;;;;6.82;2.55;;;;;;;28.57;32.39;99778.34;5113317;28;20197;-61
2021/03/01 00:59:55;;;;;;;7.25;2.28;;;;;;;29.72;30.26;99772.72;5113107;28;20291;-60
2021/03/01 01:02:21;;;;;;;7.18;2.53;;;;;;;28.78;31.74;99773.28;5112876;28;20289;-62
2021/03/01 01:04:47;;;;;;;7.72;2.20;;;;;;;28.12;32.50;99771.53;5112594;28;20206;-61
2021/03/01 01:07:13;;;;;;;8.30;2.28;;;;;;;29.80;30.14;99772.72;5112856;28;20506;-56
2021/03/01 01:09:40;;;;;;;5.15;2.17;;;;;;;28.75;31.81;99772.78;5112573;28;20652;-61
2021/03/01 01:12:07;;;;;;;4.90;2.20;;;;;;;28.19;32.23;99772.53;5112740;28;20229;-58
2021/03/01 01:14:33;;;;;;;6.53;2.03;;;;;;;29.52;30.83;99775.84;5112376;28;20562;-62
2021/03/01 01:16:59;;;;;;;5.65;2.20;;;;;;;29.01;31.50;99774.44;5113068;28;20190;-62
2021/03/01 01:19:26;;;;;;;5.70;2.53;;;;;;;28.35;32.44;99771.75;5112573;28;20571;-62
2021/03/01 01:21:52;;;;;;;4.72;2.22;;;;;;;28.35;32.55;99771.75;5111797;28;20212;-59
2021/03/01 01:24:18;;;;;;;7.82;2.50;;;;;;;29.46;30.95;99770.31;5111989;28;20205;-71
2021/03/01 01:26:45;;;;;;;6.28;2.40;;;;;;;28.90;31.59;99764.88;5111618;28;20207;-61
2021/03/01 01:29:11;;;;;;;3.53;1.80;;;;;;;28.56;32.42;99765.88;5111997;28;20186;-62
2021/03/01 01:31:37;;;;;;;4.78;2.10;;;;;;;29.82;30.19;99765.28;5112061;28;20660;-60
2021/03/01 01:34:03;;;;;;;6.22;2.30;;;;;;;30.61;29.07;99767.84;5112267;28;20228;-62
2021/03/01 01:36:29;;;;;;;6.32;2.55;;;;;;;29.52;30.63;99772.31;5112316;28;20197;-62
2021/03/01 01:38:55;;;;;;;5.47;2.08;;;;;;;29.02;31.22;99762.66;5111749;28;20195;-58
2021/03/01 01:41:21;;;;;;;4.55;2.13;;;;;;;29.65;30.77;99766.38;5112046;28;20212;-61
2021/03/01 01:43:48;;;;;;;8.20;2.28;;;;;;;29.37;30.83;99772.19;5111914;28;20300;-62
2021/03/01 01:46:15;;;;;;;5.90;2.15;;;;;;;28.74;32.01;99768.41;5111499;28;20205;-62
2021/03/01 01:48:42;;;;;;;7.30;2.00;;;;;;;28.39;32.30;99762.31;5111542;28;20562;-56
2021/03/01 01:51:08;;;;;;;7.35;2.40;;;;;;;29.66;30.64;99770.72;5112076;28;20197;-62
2021/03/01 01:53:34;;;;;;;5.50;2.30;;;;;;;28.89;31.43;99768.56;5111270;28;20221;-57
2021/03/01 01:56:01;;;;;;;7.50;2.03;;;;;;;28.47;32.17;99761.50;5111902;28;20246;-62
2021/03/01 01:58:27;;;;;;;3.67;1.60;;;;;;;30.08;30.09;99764.97;5111490;28;20258;-62
2021/03/01 02:00:55;;;;;;;6.72;2.17;;;;;;;29.02;31.51;99768.03;5111270;28;20215;-60
2021/03/01 02:03:41;;;;;;;4.70;2.05;;;;;;;28.45;32.04;99763.50;5111677;28;20290;-61
2021/03/01 02:06:17;;;;;;;5.55;2.20;;;;;;;30.19;30.31;99755.63;5111968;28;20189;-62
2021/03/01 02:08:57;;;;;;;5.05;2.08;;;;;;;28.99;31.49;99758.44;5111175;28;20196;-62
2021/03/01 02:11:34;;;;;;;6.78;2.53;;;;;;;28.28;32.71;99755.44;5111061;28;20196;-62
2021/03/01 02:14:08;;;;;;;6.53;2.22;;;;;;;30.15;29.85;99754.31;5111119;28;20217;-63
2021/03/01 02:16:36;;;;;;;4.20;2.10;;;;;;;29.37;31.08;99750.63;5110893;28;20616;-62
2021/03/01 02:19:02;;;;;;;4.13;1.90;;;;;;;28.57;31.96;99743.34;5110858;28;20645;-62
2021/03/01 02:21:31;;;;;;;8.13;2.35;;;;;;;29.14;31.32;99745.97;5110722;28;20291;-62
2021/03/01 02:23:57;;;;;;;5.88;2.50;;;;;;;29.60;30.60;99736.41;5110869;28;20224;-59
2021/03/01 02:26:26;;;;;;;5.10;2.28;;;;;;;28.89;31.60;99741.63;5110568;28;20617;-60
2021/03/01 02:28:58;;;;;;;7.55;2.25;;;;;;;28.32;32.34;99739.78;5110898;28;20682;-62
2021/03/01 02:31:27;;;;;;;7.25;2.08;;;;;;;29.64;30.55;99748.50;5110867;28;20608;-63
2021/03/01 02:33:58;;;;;;;5.45;2.10;;;;;;;28.84;31.56;99744.00;5110356;28;20277;-62
2021/03/01 02:36:28;;;;;;;7.20;2.40;;;;;;;28.24;32.55;99741.47;5111213;28;20281;-63
2021/03/01 02:38:57;;;;;;;7.07;2.17;;;;;;;29.72;30.49;99740.38;5109592;28;20605;-62
2021/03/01 02:41:25;;;;;;;8.30;2.60;;;;;;;28.97;31.47;99744.31;5110553;28;20677;-62
2021/03/01 02:43:53;;;;;;;8.18;2.75;;;;;;;28.39;32.53;99741.63;5110430;28;20629;-62
2021/03/01 02:46:20;;;;;;;8.75;2.38;;;;;;;29.98;30.39;99733.88;5110457;28;20639;-62
2021/03/01 02:48:48;;;;;;;7.00;2.15;;;;;;;30.32;30.07;99732.63;5110944;28;20196;-62
2021/03/01 02:51:15;;;;;;;4.95;2.10;;;;;;;29.30;30.97;99738.88;5110761;28;20201;-59
2021/03/01 02:53:42;;;;;;;5.63;2.30;;;;;;;28.83;31.77;99737.78;5110787;28;20258;-61
2021/03/01 02:56:10;;;;;;;6.50;2.40;;;;;;;29.73;30.50;99736.69;5110981;28;20235;-59
2021/03/01 02:58:40;;;;;;;7.45;2.22;;;;;;;28.70;31.79;99732.91;5110643;28;20224;-57
2021/03/01 03:01:07;;;;;;;9.10;2.55;;;;;;;28.03;32.87;99731.19;5111168;28;20205;-62
2021/03/01 03:03:34;;;;;;;8.38;2.47;;;;;;;30.15;29.89;99727.34;5110782;28;20217;-61
2021/03/01 03:06:01;;;;;;;8.20;2.53;;;;;;;29.16;31.20;99732.31;5110288;28;20689;-61
2021/03/01 03:08:31;;;;;;;9.00;2.80;;;;;;;28.64;32.13;99733.59;5110652;28;20189;-57
2021/03/01 03:10:57;;;;;;;5.15;2.15;;;;;;;29.14;31.29;99726.25;5110701;28;20212;-59
2021/03/01 03:13:25;;;;;;;10.73;2.15;;;;;;;29.38;31.09;99729.91;5110628;28;20236;-60
2021/03/01 03:15:55;;;;;;;5.72;2.08;;;;;;;28.62;31.83;99732.09;5110965;28;20265;-59
2021/03/01 03:18:24;;;;;;;5.43;2.30;;;;;;;28.26;32.38;99729.69;5110867;28;20633;-57
2021/03/01 03:20:51;;;;;;;9.35;2.38;;;;;;;29.59;30.34;99729.34;5110784;28;20209;-62
2021/03/01 03:23:17;;;;;;;10.07;2.17;;;;;;;28.90;31.58;99729.88;5110265;28;20683;-60
2021/03/01 03:25:43;;;;;;;7.13;1.95;;;;;;;28.42;32.12;99727.84;5110404;28;20202;-62
2021/03/01 03:28:09;;;;;;;6.18;2.60;;;;;;;29.88;30.29;99726.84;5110666;28;20201;-62
2021/03/01 03:30:36;;;;;;;6.85;2.38;;;;;;;28.78;31.75;99719.47;5110908;28;20517;-60
2021/03/01 03:33:04;;;;;;;7.35;2.40;;;;;;;28.35;32.09;99721.47;5110101;28;20225;-62
2021/03/01 03:35:30;;;;;;;4.68;2.17;;;;;;;29.74;30.53;99724.88;5110627;28;20207;-61
2021/03/01 03:38:02;;;;;;;6.15;2.25;;;;;;;29.21;31.10;99723.75;5110548;28;20201;-61
2021/03/01 03:40:30;;;;;;;5.20;1.98;;;;;;;28.64;31.69;99722.81;5111254;28;20258;-62
2021/03/01 03:42:57;;;;;;;6.60;2.25;;;;;;;28.67;32.09;99716.28;5110951;28;20221;-58
2021/03/01 03:45:24;;;;;;;6.88;2.08;;;;;;;30.17;29.87;99728.00;5110703;28;20208;-62
2021/03/01 03:47:54;;;;;;;12.80;2.85;;;;;;;29.11;31.12;99729.31;5111026;28;20204;-62
2021/03/01 03:50:23;;;;;;;6.90;2.05;;;;;;;28.60;31.87;99726.88;5111394;28;20201;-62
2021/03/01 03:52:55;;;;;;;8.23;2.35;;;;;;;29.92;29.96;99729.19;5114131;28;20308;-63
2021/03/01 03:55:23;;;;;;;7.43;2.15;;;;;;;29.06;31.40;99723.59;5114257;28;20201;-58
2021/03/01 03:57:54;;;;;;;5.68;2.25;;;;;;;28.48;32.11;99722.78;5113976;28;20233;-62
2021/03/01 04:00:23;;;;;;;4.53;1.90;;;;;;;29.05;31.67;99730.84;5113843;28;20617;-62
2021/03/01 04:02:51;;;;;;;8.43;2.20;;;;;;;29.26;30.93;99722.25;5113436;28;20232;-62
2021/03/01 04:05:19;;;;;;;7.28;2.20;;;;;;;28.60;31.93;99716.94;5113908;28;20232;-64
2021/03/01 04:07:46;;;;;;;6.30;2.28;;;;;;;28.43;32.20;99721.47;5114005;28;20540;-61
2021/03/01 04:10:13;;;;;;;4.85;2.10;;;;;;;29.69;30.52;99724.56;5113857;28;20585;-62
2021/03/01 04:12:41;;;;;;;4.30;1.80;;;;;;;28.83;31.48;99715.41;5113221;28;20302;-60
2021/03/01 04:15:10;;;;;;;6.68;2.17;;;;;;;28.23;32.50;99720.97;5113697;28;20205;-62
2021/03/01 04:17:40;;;;;;;9.13;2.30;;;;;;;29.95;30.37;99720.75;5113894;28;20617;-62
2021/03/01 04:20:10;;;;;;;5.45;1.67;;;;;;;28.95;31.24;99727.50;5113479;28;20197;-62
2021/03/01 04:22:37;;;;;;;5.90;2.47;;;;;;;28.30;31.96;99726.50;5113971;28;20217;-60
2021/03/01 04:25:07;;;;;;;9.10;2.33;;;;;;;29.91;30.47;99720.28;5113320;28;20236;-62
2021/03/01 04:27:37;;;;;;;6.82;2.40;;;;;;;29.23;30.97;99721.72;5113377;28;20197;-60
2021/03/01 04:30:06;;;;;;;5.70;2.05;;;;;;;28.41;32.20;99720.81;5113126;28;20644;-62
2021/03/01 04:32:34;;;;;;;5.32;2.08;;;;;;;28.75;31.89;99722.47;5112843;28;20229;-61
2021/03/01 04:35:01;;;;;;;5.63;2.00;;;;;;;28.83;31.61;99721.63;5112818;28;20647;-60
2021/03/01 04:37:27;;;;;;;8.57;2.40;;;;;;;27.62;33.41;99719.47;5112741;28;20594;-60
2021/03/01 04:39:53;;;;;;;5.60;2.38;;;;;;;26.57;35.74;99723.00;5113020;28;20201;-59
2021/03/01 04:42:21;;;;;;;7.40;2.00;;;;;;;27.46;34.59;99717.53;5112523;28;20707;-62
2021/03/01 04:44:47;;;;;;;8.57;2.45;;;;;;;28.77;32.11;99725.00;5112521;28;20591;-61
2021/03/01 04:47:15;;;;;;;6.22;2.17;;;;;;;30.79;29.39;99724.31;5112752;28;20219;-60
2021/03/01 04:49:43;;;;;;;7.65;2.30;;;;;;;31.55;28.50;99731.44;5112987;28;20262;-62
2021/03/01 04:52:12;;;;;;;6.97;2.35;;;;;;;30.44;29.78;99733.91;5112378;28;20672;-62
2021/03/01 04:54:39;;;;;;;10.88;2.10;;;;;;;29.89;30.34;99733.94;5113257;28;20201;-60
2021/03/01 04:57:06;;;;;;;6.35;2.15;;;;;;;30.92;29.23;99733.63;5112489;28;20640;-60
2021/03/01 04:59:34;;;;;;;6.90;2.08;;;;;;;31.58;28.45;99731.06;5113305;28;20287;-59
2021/03/01 05:02:00;;;;;;;3.88;1.55;;;;;;;30.20;29.71;99735.75;5112662;28;20212;-60
2021/03/01 05:04:27;;;;;;;6.55;1.80;;;;;;;29.91;30.12;99736.47;5113842;28;20204;-60
2021/03/01 05:06:56;;;;;;;6.07;1.85;;;;;;;30.86;29.29;99735.22;5113064;28;20250;-59
2021/03/01 05:09:22;;;;;;;6.43;2.05;;;;;;;31.72;28.29;99730.19;5112313;28;20217;-62
2021/03/01 05:11:48;;;;;;;5.53;1.98;;;;;;;30.43;29.36;99737.63;5112188;28;20667;-62
2021/03/01 05:14:15;;;;;;;4.20;1.80;;;;;;;30.03;30.34;99734.19;5112476;28;20309;-59
2021/03/01 05:16:42;;;;;;;4.32;1.58;;;;;;;30.95;28.87;99739.53;5112009;28;20202;-62
2021/03/01 05:19:08;;;;;;;5.20;1.77;;;;;;;31.81;28.34;99735.50;5112283;28;20367;-60
2021/03/01 05:21:34;;;;;;;4.95;1.95;;;;;;;30.61;29.27;99738.16;5112134;28;20269;-58
2021/03/01 05:24:01;;;;;;;5.63;2.05;;;;;;;30.14;30.07;99741.84;5112299;28;20597;-62
2021/03/01 05:26:28;;;;;;;2.78;1.75;;;;;;;30.81;29.52;99745.75;5112156;28;20434;-61
2021/03/01 05:28:54;;;;;;;5.15;1.70;;;;;;;31.88;27.75;99744.53;5112621;28;20205;-62
2021/03/01 05:31:20;;;;;;;5.50;1.67;;;;;;;30.69;28.96;99747.19;5111933;28;20185;-64
2021/03/01 05:33:47;;;;;;;4.03;1.85;;;;;;;30.08;30.06;99745.28;5112019;28;20338;-62
2021/03/01 05:36:13;;;;;;;4.85;2.20;;;;;;;30.49;29.80;99744.16;5111821;28;20598;-62
2021/03/01 05:38:39;;;;;;;2.95;1.58;;;;;;;32.04;27.85;99740.75;5111910;28;20521;-62
2021/03/01 05:41:06;;;;;;;3.90;1.50;;;;;;;31.03;28.47;99745.88;5111980;28;20512;-60
2021/03/01 05:43:32;;;;;;;3.50;1.77;;;;;;;30.37;29.79;99741.03;5111742;28;20251;-62
2021/03/01 05:46:00;;;;;;;5.65;1.88;;;;;;;30.25;30.18;99741.44;5111979;28;20658;-57
2021/03/01 05:48:27;;;;;;;6.32;2.03;;;;;;;31.95;27.90;99750.84;5111710;28;20204;-61
2021/03/01 05:50:56;;;;;;;7.63;1.75;;;;;;;31.96;28.03;99741.72;5111836;28;20201;-62
2021/03/01 05:53:25;;;;;;;3.95;1.50;;;;;;;30.86;28.91;99740.63;5111828;28;20285;-59
2021/03/01 05:55:52;;;;;;;4.95;1.77;;;;;;;30.42;29.91;99739.47;5111688;28;20549;-57
2021/03/01 05:58:20;;;;;;;3.65;1.52;;;;;;;31.69;27.87;99737.84;5111416;28;20206;-61
2021/03/01 06:00:47;;;;;;;3.67;1.98;;;;;;;31.70;27.48;99743.06;5111370;28;20242;-62
2021/03/01 06:03:13;;;;;;;4.85;1.80;;;;;;;30.87;29.25;99746.84;5111127;28;20305;-62
2021/03/01 06:05:40;;;;;;;4.35;1.77;;;;;;;30.44;29.65;99742.84;5111458;28;20206;-62
2021/03/01 06:08:09;;;;;;;4.00;1.65;;;;;;;32.16;27.69;99751.91;5111354;28;20232;-62
2021/03/01 06:10:35;;;;;;;5.55;2.00;;;;;;;31.57;27.52;99753.72;5111090;28;20293;-62
2021/03/01 06:13:01;;;;;;;3.83;1.80;;;;;;;30.58;29.25;99760.09;5110805;28;20241;-62
2021/03/01 06:15:29;;;;;;;3.10;1.52;;;;;;;30.33;29.25;99753.19;5111059;28;20221;-62
2021/03/01 06:18:06;;;;;;;5.30;2.20;;;;;;;29.71;29.82;99757.56;5111317;28;20292;-62
2021/03/01 06:20:32;;;;;;;4.53;2.03;;;;;;;29.32;29.89;99756.53;5111168;28;20197;-62
2021/03/01 06:22:58;;;;;;;5.68;2.13;;;;;;;29.61;29.56;99762.34;5110706;28;20707;-60
2021/03/01 06:25:25;;;;;;;40.10;5.25;;;;;;;31.08;29.21;99767.78;5111070;28;20693;-69
2021/03/01 06:27:53;;;;;;;65.22;8.40;;;;;;;32.36;27.36;99760.22;5111580;28;20208;-69
2021/03/01 06:30:22;;;;;;;44.72;7.22;;;;;;;31.03;28.57;99762.94;5111470;28;20264;-69
2021/03/01 06:33:08;;;;;;;45.33;6.28;;;;;;;30.26;29.82;99763.88;5111313;28;20217;-72
2021/03/01 06:35:37;;;;;;;36.65;6.13;;;;;;;31.68;28.03;99777.56;5112024;28;20181;-71
2021/03/01 06:38:24;;;;;;;30.85;5.35;;;;;;;30.99;28.55;99773.28;5111064;28;20201;-69
2021/03/01 06:41:09;;;;;;;23.73;5.60;;;;;;;30.37;29.46;99773.44;5111483;28;20210;-70
2021/03/01 06:43:35;;;;;;;25.65;5.28;;;;;;;30.19;30.18;99771.81;5110945;28;20304;-69
2021/03/01 06:46:09;;;;;;;45.13;5.22;;;;;;;31.67;27.29;99775.88;5111015;28;20247;-67
2021/03/01 06:48:36;;;;;;;13.63;3.83;;;;;;;30.23;29.24;99772.31;5111329;28;20517;-66
2021/03/01 06:51:02;;;;;;;26.85;4.78;;;;;;;29.29;31.23;99769.53;5110905;28;20201;-68
2021/03/01 06:53:29;;;;;;;25.77;4.95;;;;;;;29.53;30.95;99779.41;5110788;28;20273;-69
2021/03/01 06:56:01;;;;;;;25.45;5.28;;;;;;;31.80;28.09;99774.41;5111551;28;20284;-66
2021/03/01 06:58:33;;;;;;;17.40;4.60;;;;;;;31.33;28.74;99779.16;5111562;28;20225;-67
2021/03/01 07:01:02;;;;;;;24.73;4.35;;;;;;;30.63;29.25;99782.00;5111719;28;20213;-69
2021/03/01 07:03:28;;;;;;;21.35;4.20;;;;;;;30.34;30.22;99774.56;5111377;28;20222;-66
2021/03/01 07:05:55;;;;;;;14.65;3.85;;;;;;;32.70;27.16;99781.22;5111252;28;20372;-68
2021/03/01 07:08:32;;;;;;;24.70;3.90;;;;;;;31.18;28.48;99782.69;5110745;28;20233;-69
2021/03/01 07:10:58;;;;;;;16.25;3.80;;;;;;;30.67;29.35;99781.63;5110899;28;20216;-68
2021/03/01 07:13:28;;;;;;;16.65;3.85;;;;;;;31.67;28.18;99784.00;5110908;28;20391;-67
2021/03/01 07:15:54;;;;;;;14.95;3.53;;;;;;;32.11;27.31;99778.72;5110924;28;20201;-65
2021/03/01 07:18:21;;;;;;;14.68;3.78;;;;;;;30.99;27.63;99789.47;5111388;28;20236;-67
2021/03/01 07:20:49;;;;;;;16.45;4.63;;;;;;;30.81;27.84;99791.66;5111636;27;20217;-68
2021/03/01 07:23:15;;;;;;;21.55;3.72;;;;;;;32.65;26.15;99780.97;5111764;28;20229;-68
2021/03/01 07:25:43;;;;;;;23.02;4.43;;;;;;;31.95;26.83;99794.13;5113452;28;20589;-68
2021/03/01 07:28:14;;;;;;;15.60;3.72;;;;;;;30.72;28.45;99788.16;5115572;28;20662;-68
2021/03/01 07:30:45;;;;;;;19.85;4.18;;;;;;;30.41;28.49;99796.31;5115557;28;20201;-68
2021/03/01 07:33:13;;;;;;;18.77;4.18;;;;;;;31.66;26.78;99795.88;5115698;27;20745;-67
2021/03/01 07:35:40;;;;;;;17.77;4.32;;;;;;;31.37;26.85;99793.97;5115480;28;20193;-66
2021/03/01 07:38:09;;;;;;;14.98;4.00;;;;;;;32.11;26.81;99793.09;5115198;28;20662;-64
2021/03/01 07:40:35;;;;;;;14.20;3.30;;;;;;;32.85;25.31;99791.94;5115288;28;20229;-67
2021/03/01 07:43:02;;;;;;;14.23;4.55;;;;;;;33.09;23.76;99796.13;5114712;28;20217;-66
2021/03/01 07:45:29;;;;;;;17.38;4.30;;;;;;;31.76;26.54;99800.13;5114639;28;20640;-66
2021/03/01 07:48:00;;;;;;;14.05;3.83;;;;;;;31.05;27.24;99797.88;5115084;28;20792;-67
2021/03/01 07:50:34;;;;;;;10.30;4.00;;;;;;;30.78;27.32;99789.31;5114569;28;20694;-66
2021/03/01 07:53:00;;;;;;;19.90;3.60;;;;;;;30.23;28.06;99777.72;5114841;28;20513;-67
2021/03/01 07:55:26;;;;;;;10.95;3.53;;;;;;;31.04;27.44;99771.88;5114881;28;20194;-66
2021/03/01 07:58:04;;;;;;;23.80;4.32;;;;;;;30.90;27.96;99787.81;5115157;28;20310;-67
2021/03/01 08:00:33;;;;;;;16.98;4.45;;;;;;;32.00;25.81;99783.56;5117141;28;20189;-68
2021/03/01 08:03:01;;;;;;;18.15;5.47;;;;;;;30.85;24.91;99792.13;5118243;28;20231;-68
2021/03/01 08:05:30;;;;;;;12.60;5.88;;;;;;;30.57;23.23;99798.91;5117509;28;20235;-68
2021/03/01 08:07:56;;;;;;;16.05;6.03;;;;;;;30.14;22.99;99795.78;5116413;28;20285;-67
2021/03/01 08:10:45;;;;;;;14.95;6.22;;;;;;;29.85;22.94;99789.22;5118277;28;20250;-68
2021/03/01 08:13:11;;;;;;;14.60;6.20;;;;;;;30.07;24.08;99790.25;5118063;28;20277;-68
2021/03/01 08:15:40;;;;;;;14.57;5.00;;;;;;;30.59;24.90;99788.78;5116100;28;20532;-69
2021/03/01 08:18:09;;;;;;;12.27;4.90;;;;;;;31.07;24.89;99787.72;5114700;28;20189;-64
2021/03/01 08:20:44;;;;;;;11.27;4.30;;;;;;;31.77;24.99;99791.81;5115441;28;20225;-65
2021/03/01 08:23:15;;;;;;;11.25;5.00;;;;;;;32.25;24.85;99783.25;5114218;28;20725;-68
2021/03/01 08:25:56;;;;;;;10.07;4.35;;;;;;;32.90;23.78;99781.38;5114995;28;20271;-65
2021/03/01 08:28:44;;;;;;;13.10;4.80;;;;;;;33.04;23.24;99771.44;5115266;28;20209;-68
2021/03/01 08:31:28;;;;;;;11.90;4.10;;;;;;;33.31;24.18;99785.19;5114623;28;20208;-67
2021/03/01 08:34:34;;;;;;;7.25;3.97;;;;;;;32.91;23.44;99782.19;5114323;28;20229;-67
2021/03/01 08:37:02;;;;;;;9.35;4.30;;;;;;;31.65;25.12;99787.94;5113055;28;20212;-69
2021/03/01 08:40:01;;;;;;;12.98;4.15;;;;;;;30.96;26.55;99784.44;5113856;28;20612;-68
2021/03/01 08:42:57;;;;;;;10.45;3.80;;;;;;;32.33;25.29;99791.25;5114257;28;20239;-68
2021/03/01 08:45:36;;;;;;;13.88;3.65;;;;;;;33.27;24.01;99790.19;5112338;28;20258;-68
2021/03/01 08:48:05;;;;;;;11.00;3.30;;;;;;;31.96;25.90;99795.81;5114253;28;20619;-64
2021/03/01 08:50:34;;;;;;;10.25;4.07;;;;;;;31.43;26.29;99790.53;5114707;27;20273;-65
2021/03/01 08:53:00;;;;;;;7.07;3.63;;;;;;;32.22;25.46;99781.75;5113244;28;20747;-68
2021/03/01 08:55:27;;;;;;;13.77;3.17;;;;;;;33.05;24.82;99778.56;5113873;27;20197;-67
2021/03/01 08:58:02;;;;;;;8.07;3.22;;;;;;;32.20;26.36;99773.00;5113868;28;20201;-68
2021/03/01 09:00:30;;;;;;;8.32;3.70;;;;;;;30.85;26.97;99782.13;5114491;28;20213;-68
2021/03/01 09:03:28;;;;;;;8.73;3.45;;;;;;;31.29;26.89;99773.28;5114944;28;20250;-67
2021/03/01 09:06:03;;;;;;;11.98;3.80;;;;;;;32.21;25.40;99771.13;5115175;28;20186;-68
2021/03/01 09:08:30;;;;;;;9.27;3.35;;;;;;;32.48;25.26;99768.69;5115106;28;20189;-67
2021/03/01 09:10:58;;;;;;;7.10;3.65;;;;;;;31.53;26.74;99768.66;5114468;28;20216;-66
2021/03/01 09:13:24;;;;;;;6.47;3.42;;;;;;;30.91;27.54;99776.00;5113623;28;20709;-65
2021/03/01 09:15:51;;;;;;;11.07;3.33;;;;;;;31.41;27.46;99762.00;5114252;28;20521;-66
2021/03/01 09:18:18;;;;;;;12.85;3.75;;;;;;;32.32;25.99;99759.78;5113785;28;20292;-65
2021/03/01 09:20:48;;;;;;;6.60;3.00;;;;;;;32.63;25.92;99758.66;5112847;28;20189;-66
2021/03/01 09:23:31;;;;;;;8.35;3.22;;;;;;;31.93;26.83;99766.44;5113043;28;20252;-64
2021/03/01 09:25:57;;;;;;;6.05;3.45;;;;;;;30.99;28.17;99762.47;5112648;28;20205;-66
2021/03/01 09:28:29;;;;;;;6.38;3.28;;;;;;;30.90;28.89;99755.41;5113468;28;20209;-64
2021/03/01 09:31:08;;;;;;;7.90;3.20;;;;;;;31.96;27.16;99752.53;5113388;28;20245;-64
2021/03/01 09:33:35;;;;;;;6.75;2.97;;;;;;;32.63;26.35;99750.53;5113042;28;20712;-67
2021/03/01 09:36:01;;;;;;;7.55;2.67;;;;;;;32.00;27.87;99753.81;5112982;28;20185;-66
2021/03/01 09:38:28;;;;;;;7.35;3.10;;;;;;;31.40;27.83;99752.22;5112462;28;20316;-63
2021/03/01 09:40:59;;;;;;;7.93;3.30;;;;;;;30.87;28.46;99758.47;5113066;28;20201;-63
2021/03/01 09:43:26;;;;;;;5.47;3.40;;;;;;;31.38;28.38;99754.25;5112372;28;20231;-67
2021/03/01 09:45:53;;;;;;;7.53;2.75;;;;;;;31.66;28.45;99755.31;5112337;28;20284;-64
2021/03/01 09:48:20;;;;;;;6.38;3.22;;;;;;;32.40;26.84;99754.25;5112145;28;20217;-67
2021/03/01 09:50:47;;;;;;;9.00;2.65;;;;;;;31.76;28.17;99751.44;5112356;28;20236;-66
2021/03/01 09:53:16;;;;;;;4.82;2.67;;;;;;;30.83;28.84;99751.78;5112166;28;20228;-67
2021/03/01 09:55:44;;;;;;;9.85;3.50;;;;;;;31.26;28.52;99751.19;5112032;28;20189;-66
2021/03/01 09:58:30;;;;;;;10.05;2.80;;;;;;;32.67;27.11;99743.69;5111777;28;20637;-67
2021/03/01 10:01:09;;;;;;;7.68;2.90;;;;;;;31.39;28.61;99745.97;5111963;28;20217;-72
2021/03/01 10:03:38;;;;;;;9.10;2.67;;;;;;;30.43;28.52;99735.75;5111777;28;20288;-66
2021/03/01 10:06:04;;;;;;;4.90;2.47;;;;;;;30.99;27.76;99734.59;5112193;28;20261;-68
2021/03/01 10:08:30;;;;;;;8.98;3.00;;;;;;;31.67;27.26;99735.34;5111607;28;20224;-68
2021/03/01 10:10:58;;;;;;;4.90;2.60;;;;;;;30.39;28.48;99739.00;5111894;28;20630;-68
2021/03/01 10:13:26;;;;;;;12.00;2.70;;;;;;;29.73;29.23;99728.59;5111848;28;20267;-60
2021/03/01 10:15:53;;;;;;;8.38;2.75;;;;;;;30.26;28.74;99735.03;5112061;28;20327;-62
2021/03/01 10:18:22;;;;;;;5.13;2.75;;;;;;;31.83;26.82;99737.00;5112071;28;20205;-61
2021/03/01 10:21:07;;;;;;;4.32;2.45;;;;;;;30.31;28.57;99723.69;5111823;28;20197;-60
2021/03/01 10:23:38;;;;;;;6.00;2.50;;;;;;;29.64;29.62;99730.47;5111495;28;20220;-61
2021/03/01 10:26:21;;;;;;;9.43;2.50;;;;;;;30.56;28.54;99726.19;5111852;28;20349;-63
2021/03/01 10:28:53;;;;;;;7.53;2.55;;;;;;;31.80;26.72;99725.72;5111468;27;20250;-70
2021/03/01 10:31:22;;;;;;;6.25;2.30;;;;;;;30.26;28.97;99718.84;5111485;28;20301;-70
2021/03/01 10:33:53;;;;;;;8.88;2.55;;;;;;;29.89;29.67;99719.59;5111440;28;20225;-67
2021/03/01 10:36:19;;;;;;;5.68;2.50;;;;;;;30.52;28.79;99720.34;5111943;28;20194;-69
2021/03/01 10:39:06;;;;;;;5.88;2.17;;;;;;;31.83;27.41;99717.22;5111538;28;20228;-70
2021/03/01 10:41:40;;;;;;;6.47;2.33;;;;;;;30.51;28.86;99720.50;5111549;28;20478;-67
2021/03/01 10:44:08;;;;;;;6.18;1.95;;;;;;;29.62;30.04;99719.03;5111533;28;20228;-64
2021/03/01 10:46:37;;;;;;;6.65;2.40;;;;;;;30.44;29.31;99715.88;5111653;28;20238;-68
2021/03/01 10:49:13;;;;;;;5.47;2.63;;;;;;;31.66;27.56;99712.03;5111210;28;20700;-68
2021/03/01 10:51:39;;;;;;;6.32;2.47;;;;;;;30.50;28.86;99714.28;5111091;28;20204;-69
2021/03/01 10:54:05;;;;;;;11.55;2.58;;;;;;;29.97;29.89;99706.06;5111852;28;20247;-67
2021/03/01 10:56:31;;;;;;;7.55;2.53;;;;;;;30.59;29.24;99707.81;5118122;28;20344;-70
2021/03/01 10:58:58;;;;;;;5.60;2.42;;;;;;;31.92;27.37;99699.84;5118002;28;20227;-71
2021/03/01 11:01:31;;;;;;;6.10;2.00;;;;;;;30.37;29.10;99700.56;5119904;28;20215;-69
2021/03/01 11:03:57;;;;;;;6.53;2.28;;;;;;;29.73;30.47;99701.66;5120255;28;20304;-68
2021/03/01 11:06:23;;;;;;;10.73;2.33;;;;;;;31.10;28.50;99700.91;5119462;28;20272;-68
2021/03/01 11:08:49;;;;;;;8.60;2.50;;;;;;;29.68;29.63;99695.94;5117122;28;20268;-68
2021/03/01 11:11:15;;;;;;;5.20;2.65;;;;;;;29.13;30.12;99706.59;5115797;28;20300;-68
2021/03/01 11:13:41;;;;;;;4.05;2.38;;;;;;;29.43;29.82;99696.06;5115354;28;20282;-67
2021/03/01 11:16:09;;;;;;;7.05;2.75;;;;;;;30.23;28.58;99697.63;5115573;28;20201;-68
2021/03/01 11:18:35;;;;;;;4.93;2.97;;;;;;;29.38;29.56;99684.97;5115774;28;20211;-67
2021/03/01 11:21:01;;;;;;;7.80;2.83;;;;;;;28.87;30.37;99684.44;5115186;28;20207;-65
2021/03/01 11:23:27;;;;;;;13.32;3.15;;;;;;;30.36;28.32;99679.97;5115866;28;20225;-67
2021/03/01 11:25:53;;;;;;;10.88;4.40;;;;;;;29.15;24.10;99685.69;5116175;28;20198;-68
2021/03/01 11:28:19;;;;;;;6.88;3.72;;;;;;;28.39;27.05;99681.63;5121035;28;20185;-68
2021/03/01 11:30:46;;;;;;;6.88;2.90;;;;;;;28.68;28.71;99675.75;5128557;28;20215;-69
2021/03/01 11:33:13;;;;;;;8.25;2.95;;;;;;;29.18;29.22;99681.00;5128566;28;20293;-68
2021/03/01 11:35:39;;;;;;;10.30;2.90;;;;;;;30.03;28.22;99672.16;5129313;28;20281;-70
2021/03/01 11:38:06;;;;;;;7.47;2.40;;;;;;;31.07;27.20;99669.69;5128565;28;20186;-68
2021/03/01 11:40:32;;;;;;;15.80;2.60;;;;;;;32.01;26.36;99660.81;5116232;28;20706;-67